createdAt,value
2023-02-09T00:02:51.105Z,9.90
2023-02-09T00:07:56.574Z,9.90
2023-02-09T00:13:20.267Z,10.00
2023-02-09T00:18:28.671Z,9.30
2023-02-09T00:23:36.636Z,10.73
2023-02-09T00:28:42.102Z,7.73
2023-02-09T00:33:47.715Z,10.67
2023-02-09T00:38:53.419Z,10.47
2023-02-09T00:43:59.006Z,9.90
2023-02-09T00:49:05.868Z,10.60
2023-02-09T00:54:11.461Z,11.57
2023-02-09T00:59:17.766Z,10.70
2023-02-09T01:04:23.321Z,11.23
2023-02-09T01:09:28.910Z,10.17
2023-02-09T01:14:34.441Z,11.50
2023-02-09T01:19:39.965Z,12.17
2023-02-09T01:24:45.630Z,11.20
2023-02-09T01:29:52.872Z,10.37
2023-02-09T01:34:58.341Z,12.43
2023-02-09T01:40:04.784Z,10.37
2023-02-09T01:45:32.985Z,9.83
2023-02-09T01:50:41.521Z,9.83
2023-02-09T01:55:52.554Z,9.53
2023-02-09T02:01:00.046Z,9.20
2023-02-09T02:06:08.595Z,11.00
2023-02-09T02:11:14.435Z,11.43
2023-02-09T02:16:29.196Z,10.80
2023-02-09T02:21:43.481Z,11.20
2023-02-09T02:27:08.198Z,10.63
2023-02-09T02:32:28.866Z,10.93
2023-02-09T02:37:52.608Z,11.03
2023-02-09T02:43:01.050Z,10.70
2023-02-09T02:48:31.157Z,10.80
2023-02-09T02:53:38.942Z,10.40
2023-02-09T02:58:47.264Z,11.00
2023-02-09T03:03:54.636Z,10.70
2023-02-09T03:09:00.684Z,11.70
2023-02-09T03:14:24.376Z,11.07
2023-02-09T03:19:44.219Z,11.47
2023-02-09T03:25:10.982Z,10.77
2023-02-09T03:30:18.048Z,10.87
2023-02-09T03:35:26.608Z,12.13
2023-02-09T03:40:32.151Z,10.53
2023-02-09T03:45:37.688Z,10.30
2023-02-09T03:50:43.681Z,10.07
2023-02-09T03:55:49.542Z,11.13
2023-02-09T04:00:55.058Z,11.37
2023-02-09T04:06:00.750Z,10.50
2023-02-09T04:11:06.384Z,10.43
2023-02-09T04:16:11.882Z,10.63
2023-02-09T04:21:17.463Z,10.93
2023-02-09T04:26:23.107Z,11.33
2023-02-09T04:31:28.804Z,10.70
2023-02-09T04:36:34.468Z,10.40
2023-02-09T04:41:40.032Z,10.53
2023-02-09T04:46:45.840Z,9.80
2023-02-09T04:51:51.375Z,9.43
2023-02-09T04:57:15.090Z,9.00
2023-02-09T05:02:20.628Z,11.90
2023-02-09T05:07:26.762Z,8.53
2023-02-09T05:12:33.318Z,10.07
2023-02-09T05:17:39.048Z,10.17
2023-02-09T05:22:44.651Z,10.20
2023-02-09T05:27:50.253Z,9.70
2023-02-09T05:32:56.321Z,9.53
2023-02-09T05:38:01.837Z,10.27
2023-02-09T05:43:07.437Z,9.60
2023-02-09T05:48:12.907Z,10.50
2023-02-09T05:53:18.769Z,8.93
2023-02-09T05:58:24.152Z,9.07
2023-02-09T06:03:29.828Z,9.57
2023-02-09T06:08:35.382Z,9.57
2023-02-09T06:13:40.898Z,9.27
2023-02-09T06:18:46.553Z,6.47
2023-02-09T06:23:52.445Z,9.87
2023-02-09T06:28:57.913Z,10.27
2023-02-09T06:34:05.413Z,9.30
2023-02-09T06:39:11.889Z,8.57
2023-02-09T06:44:17.275Z,9.60
2023-02-09T06:49:24.196Z,6.67
2023-02-09T06:54:30.257Z,7.17
2023-02-09T06:59:35.676Z,9.50
2023-02-09T07:04:41.114Z,9.00
2023-02-09T07:09:46.602Z,5.53
2023-02-09T07:14:52.076Z,10.03
2023-02-09T07:19:58.006Z,9.27
2023-02-09T07:25:03.485Z,7.87
2023-02-09T07:30:10.027Z,9.23
2023-02-09T07:35:15.481Z,6.90
2023-02-09T07:40:21.246Z,8.90
2023-02-09T07:45:26.787Z,9.83
2023-02-09T07:50:32.883Z,9.73
2023-02-09T07:55:39.789Z,6.70
2023-02-09T08:00:45.984Z,7.30
2023-02-09T08:06:03.581Z,6.57
2023-02-09T08:11:09.170Z,8.13
2023-02-09T08:16:17.664Z,7.73
2023-02-09T08:21:23.831Z,7.57
2023-02-09T08:26:30.357Z,6.93
2023-02-09T08:31:36.046Z,9.80
2023-02-09T08:36:41.924Z,8.83
2023-02-09T08:41:47.344Z,8.40
2023-02-09T08:46:53.046Z,7.50
2023-02-09T08:51:58.572Z,7.50
2023-02-09T08:57:04.235Z,5.87
2023-02-09T09:02:09.696Z,6.40
2023-02-09T09:07:15.531Z,7.07
2023-02-09T09:12:21.156Z,6.87
2023-02-09T09:17:26.677Z,7.63
2023-02-09T09:22:33.800Z,7.33
2023-02-09T09:27:39.330Z,7.77
2023-02-09T09:32:44.888Z,7.03
2023-02-09T09:37:50.483Z,8.03
2023-02-09T09:42:59.154Z,6.70
2023-02-09T09:48:05.321Z,6.60
2023-02-09T09:53:19.868Z,8.13
2023-02-09T09:58:25.764Z,6.47
2023-02-09T10:03:31.288Z,6.57
2023-02-09T10:08:39.813Z,6.70
2023-02-09T10:13:50.642Z,6.00
2023-02-09T10:19:01.999Z,6.43
2023-02-09T10:24:17.224Z,3.43
2023-02-09T10:29:27.199Z,6.30
2023-02-09T10:34:44.858Z,5.50
2023-02-09T10:39:56.178Z,6.43
2023-02-09T10:45:28.645Z,5.80
2023-02-09T10:50:34.208Z,6.13
2023-02-09T10:55:42.315Z,6.10
2023-02-09T11:01:02.568Z,5.90
2023-02-09T11:06:19.818Z,5.20
2023-02-09T11:11:31.286Z,6.37
2023-02-09T11:16:52.046Z,3.50
2023-02-09T11:22:06.975Z,5.23
2023-02-09T11:27:38.191Z,5.47
2023-02-09T11:32:49.237Z,5.20
2023-02-09T11:38:01.706Z,4.97
2023-02-09T11:43:10.267Z,5.87
2023-02-09T11:48:27.987Z,4.87
2023-02-09T11:53:45.592Z,4.90
2023-02-09T11:59:19.168Z,5.90
2023-02-09T12:04:53.698Z,5.57
2023-02-09T12:10:31.030Z,5.83
2023-02-09T12:15:49.368Z,6.67
2023-02-09T12:21:03.990Z,7.27
2023-02-09T12:26:24.068Z,6.50
2023-02-09T12:31:30.172Z,5.97
2023-02-09T12:36:36.495Z,7.20
2023-02-09T12:41:44.937Z,4.97
2023-02-09T12:46:53.622Z,7.07
2023-02-09T12:52:16.970Z,4.80
2023-02-09T12:57:28.655Z,6.07
2023-02-09T13:02:52.363Z,5.93
2023-02-09T13:08:19.102Z,5.93
2023-02-09T13:13:36.744Z,6.83
2023-02-09T13:19:03.457Z,6.50
2023-02-09T13:24:22.871Z,5.53
2023-02-09T13:29:31.330Z,6.07
2023-02-09T13:34:58.933Z,6.60
2023-02-09T13:40:23.798Z,5.00
2023-02-09T13:45:29.742Z,5.90
2023-02-09T13:50:35.185Z,6.63
2023-02-09T13:55:42.984Z,6.20
2023-02-09T14:00:58.114Z,5.73
2023-02-09T14:06:12.875Z,5.63
2023-02-09T14:11:41.531Z,5.30
2023-02-09T14:16:51.602Z,6.53
2023-02-09T14:21:46.972Z,4.80
2023-02-09T14:27:06.888Z,5.17
2023-02-09T14:32:47.930Z,5.90
2023-02-09T14:37:56.314Z,5.53
2023-02-09T14:43:04.781Z,5.43
2023-02-09T14:48:22.313Z,6.37
2023-02-09T14:53:30.756Z,5.27
2023-02-09T14:58:36.267Z,6.50
2023-02-09T15:03:41.831Z,6.53
2023-02-09T15:08:47.365Z,5.30
2023-02-09T15:14:02.953Z,5.17
2023-02-09T15:19:14.932Z,5.87
2023-02-09T15:24:20.672Z,5.20
2023-02-09T15:29:27.383Z,6.27
2023-02-09T15:34:32.912Z,5.40
2023-02-09T15:39:38.361Z,5.53
2023-02-09T15:45:01.550Z,5.33
2023-02-09T15:50:07.505Z,5.93
2023-02-09T15:55:18.673Z,4.70
2023-02-09T16:00:27.287Z,6.42
2023-02-09T16:05:32.857Z,6.20
2023-02-09T16:10:38.236Z,5.73
2023-02-09T16:15:44.008Z,5.03
2023-02-09T16:20:52.336Z,5.00
2023-02-09T16:26:01.617Z,6.20
2023-02-09T16:31:08.641Z,5.80
2023-02-09T16:36:16.823Z,6.17
2023-02-09T16:41:40.234Z,6.83
2023-02-09T16:46:47.971Z,5.70
2023-02-09T16:51:53.693Z,6.23
2023-02-09T16:56:59.259Z,5.40
2023-02-09T17:02:05.496Z,5.27
2023-02-09T17:07:12.462Z,6.60
2023-02-09T17:12:17.928Z,5.80
2023-02-09T17:17:23.859Z,6.43
2023-02-09T17:22:29.527Z,6.13
2023-02-09T17:27:35.048Z,6.73
2023-02-09T17:32:41.311Z,7.10
2023-02-09T17:37:47.678Z,5.20
2023-02-09T17:42:54.110Z,5.07
2023-02-09T17:48:01.007Z,6.10
2023-02-09T17:53:09.707Z,6.30
2023-02-09T17:58:15.780Z,6.23
2023-02-09T18:03:24.034Z,5.23
2023-02-09T18:08:31.183Z,5.87
2023-02-09T18:13:36.569Z,5.57
2023-02-09T18:18:43.202Z,6.57
2023-02-09T18:23:49.331Z,6.77
2023-02-09T18:28:54.774Z,5.53
2023-02-09T18:34:00.240Z,7.07
2023-02-09T18:39:05.976Z,8.30
2023-02-09T18:44:11.981Z,6.67
2023-02-09T18:49:17.527Z,6.47
2023-02-09T18:54:23.179Z,6.17
2023-02-09T18:59:33.379Z,7.03
2023-02-09T19:04:39.669Z,8.03
2023-02-09T19:09:46.006Z,6.73
2023-02-09T19:14:52.422Z,7.90
2023-02-09T19:20:03.134Z,7.57
2023-02-09T19:25:09.106Z,6.63
2023-02-09T19:30:17.579Z,6.30
2023-02-09T19:35:23.823Z,7.27
2023-02-09T19:40:31.238Z,6.07
2023-02-09T19:45:37.799Z,6.60
2023-02-09T19:50:43.635Z,5.73
2023-02-09T19:55:53.594Z,6.30
2023-02-09T20:00:59.165Z,5.27
2023-02-09T20:06:32.775Z,5.73
2023-02-09T20:11:38.510Z,6.17
2023-02-09T20:16:43.991Z,6.10
2023-02-09T20:21:49.741Z,6.40
2023-02-09T20:26:55.450Z,6.57
2023-02-09T20:32:01.809Z,3.77
2023-02-09T20:37:07.422Z,5.37
2023-02-09T20:42:31.344Z,5.93
2023-02-09T20:47:36.976Z,6.83
2023-02-09T20:52:45.816Z,4.63
2023-02-09T20:57:52.046Z,7.20
2023-02-09T21:02:57.657Z,5.67
2023-02-09T21:08:04.712Z,6.20
2023-02-09T21:13:11.895Z,4.43
2023-02-09T21:18:19.123Z,5.30
2023-02-09T21:23:24.824Z,5.43
2023-02-09T21:28:30.881Z,5.90
2023-02-09T21:33:37.374Z,5.70
2023-02-09T21:38:43.164Z,6.87
2023-02-09T21:43:49.292Z,6.13
2023-02-09T21:48:55.410Z,3.53
2023-02-09T21:54:00.855Z,4.47
2023-02-09T21:59:06.436Z,6.33
2023-02-09T22:04:12.815Z,3.97
2023-02-09T22:09:20.382Z,5.90
2023-02-09T22:14:25.968Z,6.87
2023-02-09T22:19:31.444Z,7.30
2023-02-09T22:24:44.608Z,5.53
2023-02-09T22:29:50.039Z,7.63
2023-02-09T22:34:55.504Z,7.03
2023-02-09T22:40:01.069Z,4.63
2023-02-09T22:45:08.240Z,6.37
2023-02-09T22:50:13.685Z,8.47
2023-02-09T22:55:19.145Z,7.40
2023-02-09T23:00:24.672Z,6.97
2023-02-09T23:05:30.164Z,7.63
2023-02-09T23:10:35.693Z,7.07
2023-02-09T23:15:41.257Z,6.00
2023-02-09T23:20:47.780Z,7.27
2023-02-09T23:25:53.863Z,7.53
2023-02-09T23:31:01.959Z,7.13
2023-02-09T23:36:09.449Z,8.10
2023-02-09T23:41:19.669Z,7.33
2023-02-09T23:46:28.899Z,7.73
2023-02-09T23:51:36.594Z,9.63
2023-02-09T23:56:42.183Z,9.23
